Athina V — 9H8661 — position and weather

sailwx.info

Track history (hours):
 
Tides and Currents Weather Stations Pressure Air Temp Water Temp Dewpoint Dewpoint Depression Visibility Wind Speed Wind Dir Waves Ship Positions

Athina V

Last reported at 2016-Aug-29 16:09 UTC. Time now 2016-Aug-30 07:28 UTC.
Position N 38°42' E 009°46'.

Length 19 m; draft 3 m.

Type: Sailing vessel. MMSI: 256655000.

Date/timePositionNaut miles runAvg speedWind from/ knotsBaromVisibWave heightAir tempDewpointWater temp
2016-Aug-29 16:09N 38°42' E 009°46'5 6.8
2016-Aug-29 15:24N 38°41' E 009°52'16 5.5
2016-Aug-29 12:33N 38°38' E 010°12'6 5.5
2016-Aug-29 11:33N 38°37' E 010°19'6 5.7
2016-Aug-29 10:33N 38°37' E 010°26'11 5.6
2016-Aug-29 08:31N 38°38' E 010°41'6 5.7
2016-Aug-29 07:29N 38°36' E 010°48'17 5.8
2016-Aug-29 04:27N 38°33' E 011°10'6 6.2
2016-Aug-29 03:33N 38°32' E 011°17'7 6.3
2016-Aug-29 02:25N 38°31' E 011°26'5 6.1
2016-Aug-29 01:33N 38°30' E 011°32'60 6.0
2016-Aug-28 15:33N 38°27' E 012°49'6 6.3
2016-Aug-28 14:33N 38°27' E 012°57'7 7.4
2016-Aug-28 13:33N 38°27' E 013°07'6 5.9
2016-Aug-28 12:33N 38°27' E 013°14'6 5.9
2016-Aug-28 11:33N 38°27' E 013°22'6 6.4
2016-Aug-28 10:33N 38°26' E 013°30'6 6.1
2016-Aug-28 09:33N 38°26' E 013°38'6 5.9
2016-Aug-28 08:33N 38°25' E 013°45'6 5.9
2016-Aug-28 07:33N 38°25' E 013°53'8 5.8
2016-Aug-28 06:14N 38°24' E 014°03'18 5.8
2016-Aug-28 03:04N 38°23' E 014°26'5 5.9
2016-Aug-28 02:16N 38°22' E 014°32'6 5.7
2016-Aug-28 01:11N 38°22' E 014°40'4 5.8
2016-Aug-28 00:32N 38°21' E 014°45'6 5.9
2016-Aug-27 23:33N 38°20' E 014°52'6 5.8
2016-Aug-27 22:33N 38°20' E 014°59'6 6.2
2016-Aug-27 21:33N 38°20' E 015°07'6 6.0
2016-Aug-27 20:33N 38°19' E 015°15'6 6.3
2016-Aug-27 19:33N 38°19' E 015°23'6 6.3
2016-Aug-27 18:33N 38°19' E 015°31'5 4.9
2016-Aug-27 17:33N 38°18' E 015°37'4 3.9
2016-Aug-27 16:33N 38°15' E 015°39'6 5.5
2016-Aug-27 15:33N 38°09' E 015°38'7 6.6
2016-Aug-27 14:33N 38°03' E 015°38'6 6.4
2016-Aug-27 13:33N 37°57' E 015°41'  
Track history (hours):
 
Tides and Currents Weather Stations Pressure Air Temp Water Temp Dewpoint Dewpoint Depression Visibility Wind Speed Wind Dir Waves Ship Positions

Athina V

Last reported at 2016-Aug-29 16:09 UTC. Time now 2016-Aug-30 07:28 UTC.
Position N 38°42' E 009°46'.

Length 19 m; draft 3 m.

Type: Sailing vessel. MMSI: 256655000.

Date/timePositionNaut miles runAvg speedWind from/ knotsBaromVisibWave heightAir tempDewpointWater temp
2016-Aug-29 16:09N 38°42' E 009°46'5 6.8
2016-Aug-29 15:24N 38°41' E 009°52'16 5.5
2016-Aug-29 12:33N 38°38' E 010°12'6 5.5
2016-Aug-29 11:33N 38°37' E 010°19'6 5.7
2016-Aug-29 10:33N 38°37' E 010°26'11 5.6
2016-Aug-29 08:31N 38°38' E 010°41'6 5.7
2016-Aug-29 07:29N 38°36' E 010°48'17 5.8
2016-Aug-29 04:27N 38°33' E 011°10'6 6.2
2016-Aug-29 03:33N 38°32' E 011°17'7 6.3
2016-Aug-29 02:25N 38°31' E 011°26'5 6.1
2016-Aug-29 01:33N 38°30' E 011°32'60 6.0
2016-Aug-28 15:33N 38°27' E 012°49'6 6.3
2016-Aug-28 14:33N 38°27' E 012°57'7 7.4
2016-Aug-28 13:33N 38°27' E 013°07'6 5.9
2016-Aug-28 12:33N 38°27' E 013°14'6 5.9
2016-Aug-28 11:33N 38°27' E 013°22'6 6.4
2016-Aug-28 10:33N 38°26' E 013°30'6 6.1
2016-Aug-28 09:33N 38°26' E 013°38'6 5.9
2016-Aug-28 08:33N 38°25' E 013°45'6 5.9
2016-Aug-28 07:33N 38°25' E 013°53'8 5.8
2016-Aug-28 06:14N 38°24' E 014°03'18 5.8
2016-Aug-28 03:04N 38°23' E 014°26'5 5.9
2016-Aug-28 02:16N 38°22' E 014°32'6 5.7
2016-Aug-28 01:11N 38°22' E 014°40'4 5.8
2016-Aug-28 00:32N 38°21' E 014°45'6 5.9
2016-Aug-27 23:33N 38°20' E 014°52'6 5.8
2016-Aug-27 22:33N 38°20' E 014°59'6 6.2
2016-Aug-27 21:33N 38°20' E 015°07'6 6.0
2016-Aug-27 20:33N 38°19' E 015°15'6 6.3
2016-Aug-27 19:33N 38°19' E 015°23'6 6.3
2016-Aug-27 18:33N 38°19' E 015°31'5 4.9
2016-Aug-27 17:33N 38°18' E 015°37'4 3.9
2016-Aug-27 16:33N 38°15' E 015°39'6 5.5
2016-Aug-27 15:33N 38°09' E 015°38'7 6.6
2016-Aug-27 14:33N 38°03' E 015°38'6 6.4
2016-Aug-27 13:33N 37°57' E 015°41'  

Dump ship's entire track history